createdAt,value
2018-02-12T08:56:00.772Z,97524.98
2018-02-12T08:58:28.823Z,97522.41
2018-02-12T09:00:56.747Z,97534.50
2018-02-12T09:03:24.454Z,97541.94
2018-02-12T09:05:52.375Z,97549.59
2018-02-12T09:08:20.062Z,97549.42
2018-02-12T09:10:47.736Z,97543.83
2018-02-12T09:13:16.768Z,97553.38
2018-02-12T09:15:44.716Z,97558.71
2018-02-12T09:18:12.398Z,97562.97
2018-02-12T09:20:40.066Z,97560.92
2018-02-12T09:23:08.122Z,97566.34
2018-02-12T09:25:36.096Z,97568.08
2018-02-12T09:28:03.765Z,97578.33
2018-02-12T09:30:31.470Z,97577.92
2018-02-12T09:32:59.127Z,97591.16
2018-02-12T09:35:26.816Z,97583.30
2018-02-12T09:37:54.486Z,97600.31
2018-02-12T09:40:22.347Z,97592.23
2018-02-12T09:42:50.014Z,97598.34
2018-02-12T09:45:17.667Z,97598.62
2018-02-12T09:47:45.354Z,97607.23
2018-02-12T09:50:13.026Z,97611.00
2018-02-12T09:52:40.987Z,97606.34
2018-02-12T09:55:09.467Z,97609.76
2018-02-12T09:57:40.288Z,97614.72
2018-02-12T10:00:07.947Z,97613.22
2018-02-12T10:02:35.644Z,97625.26
2018-02-12T10:05:03.335Z,97630.27
2018-02-12T10:07:31.006Z,97631.30
2018-02-12T10:09:58.700Z,97639.34
2018-02-12T10:12:26.359Z,97636.98
2018-02-12T10:14:54.232Z,97635.68
2018-02-12T10:17:21.909Z,97636.75
2018-02-12T10:19:49.574Z,97639.77
2018-02-12T10:22:17.544Z,97645.21
2018-02-12T10:24:45.516Z,97644.55
2018-02-12T10:27:13.193Z,97647.93
2018-02-12T10:29:40.851Z,97651.50
2018-02-12T10:32:08.545Z,97649.25
2018-02-12T10:34:36.206Z,97653.71
2018-02-12T10:37:03.863Z,97657.09
2018-02-12T10:39:31.573Z,97664.02
2018-02-12T10:41:59.234Z,97659.14
2018-02-12T10:44:27.903Z,97662.33
2018-02-12T10:46:55.568Z,97668.48
2018-02-12T10:49:23.272Z,97671.80
2018-02-12T10:51:51.228Z,97669.23
2018-02-12T10:54:19.304Z,97670.72
2018-02-12T10:56:47.052Z,97681.06
2018-02-12T10:59:14.734Z,97678.11
2018-02-12T11:01:42.459Z,97674.27
2018-02-12T11:04:10.144Z,97675.91
2018-02-12T11:06:37.817Z,97679.47
2018-02-12T11:09:05.765Z,97678.59
2018-02-12T11:11:33.460Z,97670.88
2018-02-12T11:14:01.672Z,97673.23
2018-02-12T11:16:29.328Z,97673.98
2018-02-12T11:18:57.149Z,97674.76
2018-02-12T11:21:24.816Z,97672.12
2018-02-12T11:23:52.586Z,97668.44
2018-02-12T11:26:20.580Z,97669.35
2018-02-12T11:28:48.249Z,97667.72
2018-02-12T11:31:15.963Z,97669.06
2018-02-12T11:33:43.726Z,97672.42
2018-02-12T11:36:11.464Z,97665.99
2018-02-12T11:38:39.129Z,97666.16
2018-02-12T11:41:06.836Z,97665.75
2018-02-12T11:43:34.541Z,97673.99
2018-02-12T11:46:02.204Z,97669.48
2018-02-12T11:48:29.900Z,97673.80
2018-02-12T11:50:57.985Z,97672.98
2018-02-12T11:53:26.141Z,97672.56
2018-02-12T11:55:54.028Z,97674.02
2018-02-12T11:58:21.699Z,97674.85
2018-02-12T12:00:49.750Z,97675.80
2018-02-12T12:03:17.443Z,97684.64
2018-02-12T12:05:45.432Z,97686.91
2018-02-12T12:08:13.091Z,97686.73
2018-02-12T12:10:40.829Z,97681.42
2018-02-12T12:13:08.720Z,97679.70
2018-02-12T12:15:36.378Z,97683.20
2018-02-12T12:18:04.073Z,97688.41
2018-02-12T12:20:31.747Z,97678.90
2018-02-12T12:22:59.794Z,97685.35
2018-02-12T12:25:27.868Z,97684.47
2018-02-12T12:27:55.903Z,97678.60
2018-02-12T12:30:23.570Z,97688.62
2018-02-12T12:32:51.262Z,97682.03
2018-02-12T12:35:18.950Z,97680.61
2018-02-12T12:37:46.683Z,97686.64
2018-02-12T12:40:14.352Z,97683.39
2018-02-12T12:42:42.019Z,97682.05
2018-02-12T12:45:09.933Z,97679.55
2018-02-12T12:47:37.611Z,97680.28
2018-02-12T12:50:05.278Z,97672.11
2018-02-12T12:52:33.080Z,97660.52
2018-02-12T12:55:00.942Z,97660.97
2018-02-12T12:57:29.379Z,97671.97
2018-02-12T12:59:57.083Z,97672.95
2018-02-12T13:02:25.472Z,97674.59
2018-02-12T13:04:53.283Z,97669.80
2018-02-12T13:07:20.952Z,97677.95
2018-02-12T13:09:48.664Z,97675.35
2018-02-12T13:12:16.275Z,97665.67
2018-02-12T13:14:44.530Z,97677.13
2018-02-12T13:17:12.227Z,97687.78
2018-02-12T13:19:40.066Z,97683.50
2018-02-12T13:22:07.756Z,97679.22
2018-02-12T13:24:35.797Z,97676.30
2018-02-12T13:27:03.678Z,97678.96
2018-02-12T13:29:31.271Z,97678.42
2018-02-12T13:31:58.868Z,97677.14
2018-02-12T13:34:26.450Z,97681.81
2018-02-12T13:36:54.084Z,97688.22
2018-02-12T13:39:21.875Z,97693.02
2018-02-12T13:41:49.940Z,97693.45
2018-02-12T13:44:17.699Z,97699.77
2018-02-12T13:46:45.982Z,97702.73
2018-02-12T13:49:13.801Z,97709.17
2018-02-12T13:51:41.488Z,97719.91
2018-02-12T13:54:09.909Z,97708.98
2018-02-12T13:56:37.874Z,97714.80
2018-02-12T13:59:05.546Z,97711.06
2018-02-12T14:01:33.239Z,97716.65
2018-02-12T14:04:00.901Z,97716.98
2018-02-12T14:06:28.641Z,97709.97
2018-02-12T14:08:56.374Z,97714.89
2018-02-12T14:11:24.471Z,97711.75
2018-02-12T14:13:52.207Z,97717.08
2018-02-12T14:16:19.877Z,97716.02
2018-02-12T14:18:47.571Z,97721.20
2018-02-12T14:21:15.240Z,97733.09
2018-02-12T14:23:43.355Z,97727.13
2018-02-12T14:26:11.384Z,97731.67
2018-02-12T14:28:39.200Z,97728.81
2018-02-12T14:31:07.326Z,97734.98
2018-02-12T14:33:35.002Z,97734.62
2018-02-12T14:36:02.755Z,97732.67
2018-02-12T14:38:30.440Z,97735.02
2018-02-12T14:40:58.143Z,97733.42
2018-02-12T14:43:25.884Z,97737.85
2018-02-12T14:45:53.985Z,97747.08
2018-02-12T14:48:21.674Z,97742.11
2018-02-12T14:50:49.386Z,97752.77
2018-02-12T14:53:17.179Z,97803.29
2018-02-12T14:55:45.094Z,97814.27
2018-02-12T14:58:12.787Z,97804.35
2018-02-12T15:00:40.459Z,97811.59
2018-02-12T15:03:08.736Z,97809.77
2018-02-12T15:05:36.453Z,97812.77
2018-02-12T15:08:04.121Z,97818.77
2018-02-12T15:10:31.807Z,97818.09
2018-02-12T15:12:59.463Z,97818.08
2018-02-12T15:15:27.144Z,97817.55
2018-02-12T15:17:54.803Z,97823.13
2018-02-12T15:20:22.493Z,97821.92
2018-02-12T15:22:50.184Z,97818.59
2018-02-12T15:25:18.225Z,97825.20
2018-02-12T15:27:46.391Z,97827.36
2018-02-12T15:30:14.120Z,97824.15
2018-02-12T15:32:42.244Z,97829.95
2018-02-12T15:35:10.326Z,97823.64
2018-02-12T15:37:38.122Z,97833.41
2018-02-12T15:40:05.830Z,97834.61
2018-02-12T15:42:33.601Z,97830.01
2018-02-12T15:45:01.307Z,97830.89
2018-02-12T15:47:29.001Z,97834.11
2018-02-12T15:49:56.826Z,97829.55
2018-02-12T15:52:24.496Z,97830.17
2018-02-12T15:54:52.421Z,97831.02
2018-02-12T15:57:20.390Z,97831.38
2018-02-12T15:59:48.052Z,97837.41
2018-02-12T16:02:15.736Z,97838.55
2018-02-12T16:04:43.415Z,97841.05
2018-02-12T16:07:11.241Z,97838.56
2018-02-12T16:09:38.924Z,97849.45
2018-02-12T16:12:06.580Z,97853.50
2018-02-12T16:14:34.331Z,97850.48
2018-02-12T16:17:02.021Z,97856.53
2018-02-12T16:19:29.709Z,97852.20
2018-02-12T16:21:57.376Z,97855.43
2018-02-12T16:24:25.133Z,97860.59
2018-02-12T16:26:52.816Z,97860.67
2018-02-12T16:29:20.530Z,97858.50
2018-02-12T16:31:48.227Z,97852.29
2018-02-12T16:34:15.898Z,97859.59
2018-02-12T16:36:43.634Z,97863.06
2018-02-12T16:39:11.301Z,97864.34
2018-02-12T16:41:39.181Z,97868.19
2018-02-12T16:44:06.835Z,97870.88
2018-02-12T16:46:34.511Z,97874.11
2018-02-12T16:49:02.220Z,97874.72
2018-02-12T16:51:29.884Z,97885.53
2018-02-12T16:53:57.667Z,97895.46
2018-02-12T16:56:25.391Z,97896.23
2018-02-12T16:58:53.123Z,97899.48
2018-02-12T17:01:20.802Z,97906.77
2018-02-12T17:03:48.475Z,97913.30
2018-02-12T17:06:16.158Z,97915.52
2018-02-12T17:08:43.819Z,97912.78
2018-02-12T17:11:11.507Z,97912.21
2018-02-12T17:13:39.167Z,97919.40
2018-02-12T17:16:07.134Z,97924.22
2018-02-12T17:18:34.798Z,97919.32
2018-02-12T17:21:02.475Z,97926.64
2018-02-12T17:23:30.171Z,97932.69
2018-02-12T17:25:57.866Z,97931.33
2018-02-12T17:28:25.546Z,97935.59
2018-02-12T17:30:53.220Z,97937.11
2018-02-12T17:33:21.026Z,97938.66
2018-02-12T17:35:48.688Z,97940.66
2018-02-12T17:38:16.376Z,97944.25
2018-02-12T17:40:44.060Z,97943.02
2018-02-12T17:43:11.731Z,97940.51
2018-02-12T17:45:39.418Z,97942.24
2018-02-12T17:48:07.967Z,97938.09
2018-02-12T17:50:35.680Z,97943.89
2018-02-12T17:53:03.330Z,97943.68
2018-02-12T17:55:31.000Z,97945.16
2018-02-12T17:57:58.690Z,97944.75
2018-02-12T18:00:26.464Z,97946.48
2018-02-12T18:02:54.301Z,97953.59
2018-02-12T18:05:21.957Z,97955.92
2018-02-12T18:07:49.609Z,97963.13
2018-02-12T18:10:17.299Z,97966.52
2018-02-12T18:12:44.977Z,97968.53
2018-02-12T18:15:13.627Z,97970.61
2018-02-12T18:17:41.307Z,97974.34
2018-02-12T18:20:09.042Z,97974.39
2018-02-12T18:22:36.736Z,97982.23
2018-02-12T18:25:04.423Z,97982.91
2018-02-12T18:27:32.136Z,97981.36
2018-02-12T18:29:59.802Z,97988.52
2018-02-12T18:32:27.489Z,97988.16
2018-02-12T18:34:55.160Z,97989.35
2018-02-12T18:37:22.850Z,97991.42
2018-02-12T18:39:50.505Z,97994.17
2018-02-12T18:42:18.159Z,98003.46
2018-02-12T18:44:45.850Z,98001.42
2018-02-12T18:47:13.522Z,97991.06
2018-02-12T18:49:41.207Z,97993.52
2018-02-12T18:52:08.888Z,97992.88
2018-02-12T18:54:36.761Z,97998.89
2018-02-12T18:57:04.428Z,97999.08
2018-02-12T18:59:32.103Z,97999.55
2018-02-12T19:01:59.824Z,97994.47
2018-02-12T19:04:27.488Z,98000.15
2018-02-12T19:06:55.207Z,98004.17
2018-02-12T19:09:22.872Z,98007.73
2018-02-12T19:11:50.687Z,98013.77
2018-02-12T19:14:18.357Z,98019.56
2018-02-12T19:16:46.022Z,98019.53
2018-02-12T19:19:13.720Z,98024.39
2018-02-12T19:21:41.445Z,98014.05
2018-02-12T19:24:09.155Z,98021.58
2018-02-12T19:26:36.822Z,98016.58
2018-02-12T19:29:04.545Z,98019.24
2018-02-12T19:31:32.203Z,98025.06
2018-02-12T19:33:59.868Z,98028.89
2018-02-12T19:36:27.544Z,98030.88
2018-02-12T19:38:55.212Z,98024.22
2018-02-12T19:41:22.904Z,98029.39
2018-02-12T19:43:50.639Z,98029.02
2018-02-12T19:46:18.332Z,98030.94
2018-02-12T19:48:45.994Z,98035.21
2018-02-12T19:51:13.652Z,98037.03
2018-02-12T19:53:41.351Z,98043.53
2018-02-12T19:56:09.017Z,98046.75
2018-02-12T19:58:36.715Z,98047.00
2018-02-12T20:01:04.423Z,98054.98
2018-02-12T20:03:32.652Z,98049.30
2018-02-12T20:06:00.339Z,98053.70
2018-02-12T20:08:28.060Z,98053.16
2018-02-12T20:10:55.740Z,98050.07
2018-02-12T20:13:23.895Z,98053.52
2018-02-12T20:15:51.582Z,98053.91
2018-02-12T20:18:19.239Z,98057.67
2018-02-12T20:20:47.187Z,98057.50
2018-02-12T20:23:14.847Z,98053.44
2018-02-12T20:25:42.520Z,98055.76
2018-02-12T20:28:10.199Z,98060.16
2018-02-12T20:30:37.874Z,98062.89
2018-02-12T20:33:05.559Z,98051.14
2018-02-12T20:35:33.234Z,98054.09
2018-02-12T20:38:01.121Z,98055.09
2018-02-12T20:40:28.793Z,98060.09
2018-02-12T20:42:56.454Z,98059.74
2018-02-12T20:45:24.139Z,98060.42
2018-02-12T20:47:51.801Z,98064.02
2018-02-12T20:50:19.493Z,98060.73
2018-02-12T20:52:47.165Z,98064.08
2018-02-12T20:55:15.269Z,98064.47
2018-02-12T20:57:42.935Z,98064.16
2018-02-12T21:00:10.594Z,98066.43
2018-02-12T21:02:38.275Z,98060.89
2018-02-12T21:05:05.939Z,98068.09
2018-02-12T21:07:33.631Z,98074.13
2018-02-12T21:10:01.319Z,98078.96
2018-02-12T21:12:29.015Z,98073.80
2018-02-12T21:14:56.715Z,98071.84
2018-02-12T21:17:24.379Z,98067.22
2018-02-12T21:19:52.065Z,98070.22
2018-02-12T21:22:19.721Z,98075.39
2018-02-12T21:24:47.417Z,98078.12
2018-02-12T21:27:15.087Z,98079.02
2018-02-12T21:29:42.752Z,98077.53
2018-02-12T21:32:10.431Z,98081.12
2018-02-12T21:34:38.094Z,98085.85
2018-02-12T21:37:05.782Z,98080.47
2018-02-12T21:39:33.446Z,98085.80
2018-02-12T21:42:01.355Z,98086.36
2018-02-12T21:44:29.022Z,98087.47
2018-02-12T21:46:56.685Z,98082.77
2018-02-12T21:49:24.384Z,98086.95
2018-02-12T21:51:52.052Z,98082.30
2018-02-12T21:54:19.741Z,98085.45
2018-02-12T21:56:47.421Z,98090.66
2018-02-12T21:59:15.318Z,98095.61
2018-02-12T22:01:42.975Z,98091.45
2018-02-12T22:04:10.654Z,98090.38
2018-02-12T22:06:38.337Z,98084.80
2018-02-12T22:09:06.053Z,98087.44
2018-02-12T22:11:33.745Z,98087.22
2018-02-12T22:14:01.420Z,98085.95
2018-02-12T22:16:29.080Z,98087.56
2018-02-12T22:18:56.774Z,98086.13
2018-02-12T22:21:24.437Z,98088.28
2018-02-12T22:23:52.332Z,98090.75
2018-02-12T22:26:19.999Z,98086.61
2018-02-12T22:28:47.675Z,98086.69
2018-02-12T22:31:15.358Z,98091.53
2018-02-12T22:33:43.019Z,98099.06
2018-02-12T22:36:10.940Z,98097.55
2018-02-12T22:38:38.751Z,98091.17
2018-02-12T22:41:06.419Z,98093.15
2018-02-12T22:43:34.130Z,98099.66
2018-02-12T22:46:01.799Z,98101.59
2018-02-12T22:48:29.671Z,98098.91
2018-02-12T22:50:57.340Z,98096.93
2018-02-12T22:53:25.016Z,98102.63
2018-02-12T22:55:52.757Z,98103.50
2018-02-12T22:58:20.404Z,98102.10
2018-02-12T23:00:48.112Z,98100.88
2018-02-12T23:03:15.784Z,98105.38
2018-02-12T23:05:43.543Z,98105.22
2018-02-12T23:08:11.282Z,98106.45
2018-02-12T23:10:38.949Z,98102.52
2018-02-12T23:13:06.795Z,98096.64
2018-02-12T23:15:34.478Z,98098.06
2018-02-12T23:18:02.137Z,98102.13
2018-02-12T23:20:29.826Z,98096.00
2018-02-12T23:22:57.487Z,98092.20
2018-02-12T23:25:25.316Z,98093.05
2018-02-12T23:27:52.978Z,98101.30
2018-02-12T23:30:20.649Z,98096.91
2018-02-12T23:32:48.343Z,98098.73
2018-02-12T23:35:16.029Z,98094.81
2018-02-12T23:37:44.029Z,98094.86
2018-02-12T23:40:11.697Z,98094.41
2018-02-12T23:42:39.361Z,98095.32
2018-02-12T23:45:07.047Z,98098.86
2018-02-12T23:47:34.728Z,98100.36
2018-02-12T23:50:02.469Z,98100.78
2018-02-12T23:52:30.131Z,98090.80
2018-02-12T23:54:57.787Z,98101.47
2018-02-12T23:57:25.478Z,98097.97
2018-02-12T23:59:53.162Z,98101.95
